»·PEaware :: UAL1509 KGEG-KSEA

UAL1509 :: KGEG-KSEA

FLIGHT INFORMATION

Flight Status: Arrived
Operator:
United Airlines
More flights by this operator :: More flights under this callsign
Pilot: Utku A. (15598)
Aircraft: BOEING 737-800
(B738)
More flights by this aircraft type
Origin: KGEG Spokane Intl
United States
Destination: KSEA Seattle-Tacoma Intl
United States
More flights between these airports :: More routes between these airports
Route: TEMPL GLASR1
File this flight plan on PilotEdge
Remarks:
Altitude:
(Current/Filed)
30,000ft
Speed:
(Current/Filed)
462kts
Departed: 06-Aug-18 09:48 PM
Arrived: 06-Aug-18 10:32 PM
Distance/Time
Traveled:
194nm/0:44
Distance/Time
To Go:
Arrived

Flight Plot

Page will automatically refresh every two minutes.

Flight plan parsing failed; only flown route is shown


Map Options




Map Legend


Flown Route
Filed Route
Departure Airport
Arrival Airport
Navaid (VOR, NDB)
Fix

Horizontal Profiles

Position Reports

Time Latitude Longitude Heading Altitude Ground
Speed
06-Aug-18 21:16 47.624314 -117.535509 321 2361ft 0kts
06-Aug-18 21:17 47.624314 -117.535509 321 2361ft 0kts
06-Aug-18 21:18 47.624314 -117.535509 321 2361ft 0kts
06-Aug-18 21:19 47.624314 -117.535509 321 2361ft 0kts
06-Aug-18 21:20 47.624314 -117.535509 321 2361ft 0kts
06-Aug-18 21:21 47.624314 -117.535509 321 2361ft 0kts
06-Aug-18 21:22 47.624314 -117.535509 321 2361ft 0kts
06-Aug-18 21:23 47.624314 -117.535509 321 2361ft 0kts
06-Aug-18 21:24 47.624314 -117.535509 321 2361ft 0kts
06-Aug-18 21:25 47.624314 -117.535509 321 2361ft 0kts
06-Aug-18 21:26 47.624314 -117.535509 321 2361ft 0kts
06-Aug-18 21:27 47.624314 -117.535509 321 2361ft 0kts
06-Aug-18 21:28 47.624314 -117.535509 321 2361ft 0kts
06-Aug-18 21:29 47.624314 -117.535509 321 2361ft 0kts
06-Aug-18 21:30 47.624314 -117.535509 321 2361ft 0kts
06-Aug-18 21:31 47.624314 -117.535509 321 2361ft 0kts
06-Aug-18 21:32 47.624314 -117.535509 321 2361ft 0kts
06-Aug-18 21:33 47.624314 -117.535509 321 2361ft 0kts
06-Aug-18 21:34 47.624314 -117.535509 321 2361ft 0kts
06-Aug-18 21:35 47.624314 -117.535509 321 2361ft 0kts
06-Aug-18 21:36 47.624314 -117.535509 321 2361ft 0kts
06-Aug-18 21:37 47.624314 -117.535509 321 2361ft 0kts
06-Aug-18 21:38 47.624314 -117.535509 321 2361ft 0kts
06-Aug-18 21:39 47.624314 -117.535509 321 2361ft 0kts
06-Aug-18 21:40 47.624015 -117.535166 331 2360ft 2kts
06-Aug-18 21:41 47.623539 -117.535299 46 2361ft 1kts
06-Aug-18 21:42 47.623524 -117.535323 44 2361ft 0kts
06-Aug-18 21:43 47.623531 -117.535312 44 2361ft 0kts
06-Aug-18 21:44 47.624114 -117.534139 107 2360ft 2kts
06-Aug-18 21:45 47.625473 -117.530944 45 2355ft 15kts
06-Aug-18 21:46 47.628820 -117.525908 44 2349ft 18kts
06-Aug-18 21:47 47.632128 -117.520928 45 2331ft 5kts
06-Aug-18 21:48 47.630938 -117.518711 217 2328ft 3kts
06-Aug-18 21:49 47.615224 -117.542319 225 2701ft 162kts
06-Aug-18 21:50 47.579390 -117.586027 221 4976ft 180kts
06-Aug-18 21:51 47.537247 -117.639428 221 6493ft 241kts
06-Aug-18 21:52 47.490400 -117.720157 271 8894ft 280kts
06-Aug-18 21:53 47.505926 -117.838469 281 11268ft 315kts
06-Aug-18 21:54 47.524658 -117.967320 281 14088ft 329kts
06-Aug-18 21:55 47.543918 -118.101219 281 16873ft 340kts
06-Aug-18 21:56 47.563700 -118.240307 282 19417ft 352kts
06-Aug-18 21:57 47.583856 -118.383662 282 21728ft 363kts
06-Aug-18 21:58 47.604527 -118.532458 282 23778ft 374kts
06-Aug-18 21:59 47.624776 -118.680041 281 25591ft 385kts
06-Aug-18 22:00 47.645955 -118.836916 281 27323ft 394kts
06-Aug-18 22:01 47.667395 -118.997978 282 28932ft 402kts
06-Aug-18 22:02 47.688810 -119.161190 282 30048ft 410kts
06-Aug-18 22:03 47.710883 -119.332089 282 30048ft 432kts
06-Aug-18 22:04 47.732718 -119.510139 279 30042ft 446kts
06-Aug-18 22:05 47.747112 -119.688919 277 30048ft 446kts
06-Aug-18 22:06 47.760906 -119.867284 277 30046ft 445kts
06-Aug-18 22:07 47.774816 -120.050083 277 30046ft 446kts
06-Aug-18 22:08 47.788484 -120.233281 277 30044ft 445kts
06-Aug-18 22:09 47.801603 -120.412951 277 30044ft 445kts
06-Aug-18 22:10 47.814645 -120.595437 277 29718ft 449kts
06-Aug-18 22:11 47.825392 -120.749780 276 28018ft 431kts
06-Aug-18 22:12 47.837292 -120.924349 276 25997ft 407kts
06-Aug-18 22:13 47.848287 -121.088644 275 24265ft 388kts
06-Aug-18 22:14 47.858862 -121.249803 275 24256ft 390kts
06-Aug-18 22:15 47.868760 -121.404172 275 22261ft 364kts
06-Aug-18 22:16 47.877817 -121.548500 274 20258ft 345kts
06-Aug-18 22:17 47.878988 -121.685681 250 18288ft 334kts
06-Aug-18 22:18 47.822801 -121.791739 223 16310ft 327kts
06-Aug-18 22:19 47.756325 -121.881716 223 14313ft 321kts
06-Aug-18 22:20 47.690958 -121.969845 222 12317ft 316kts
06-Aug-18 22:21 47.629416 -122.052441 223 11294ft 291kts
06-Aug-18 22:22 47.565962 -122.118097 189 10108ft 282kts
06-Aug-18 22:23 47.489244 -122.126492 186 8950ft 269kts
06-Aug-18 22:24 47.417633 -122.132945 186 7364ft 250kts
06-Aug-18 22:25 47.350517 -122.139746 185 5187ft 244kts
06-Aug-18 22:26 47.284411 -122.149883 199 3037ft 236kts
06-Aug-18 22:27 47.269551 -122.221395 304 2073ft 208kts
06-Aug-18 22:28 47.296893 -122.283872 306 1988ft 167kts
06-Aug-18 22:29 47.331683 -122.311646 9 1989ft 150kts
06-Aug-18 22:30 47.370383 -122.308486 2 1523ft 146kts
06-Aug-18 22:31 47.410187 -122.308115 1 760ft 142kts
06-Aug-18 22:32 47.444276 -122.307916 0 387ft 51kts
06-Aug-18 22:33 47.450060 -122.306777 110 408ft 7kts
06-Aug-18 22:34 47.446513 -122.306300 180 395ft 17kts
06-Aug-18 22:35 47.443329 -122.305402 123 387ft 9kts
06-Aug-18 22:36 47.442230 -122.304259 119 384ft 0kts
06-Aug-18 22:37 47.442230 -122.304259 119 384ft 0kts

Navigation Log

Ident Type
Flight plan parsing failed, navigation log unavailable